sensor_id;sensor_type;location;lat;lon;timestamp;temperature;humidity
16801;DHT22;8518;53.236;10.384;2022-11-11T00:03:33;11.20;99.90
16801;DHT22;8518;53.236;10.384;2022-11-11T00:06:01;11.20;99.90
16801;DHT22;8518;53.236;10.384;2022-11-11T00:08:26;11.20;99.90
16801;DHT22;8518;53.236;10.384;2022-11-11T00:10:52;11.20;99.90
16801;DHT22;8518;53.236;10.384;2022-11-11T00:13:18;11.20;99.90
16801;DHT22;8518;53.236;10.384;2022-11-11T00:15:43;11.20;99.90
16801;DHT22;8518;53.236;10.384;2022-11-11T00:18:10;11.20;99.90
16801;DHT22;8518;53.236;10.384;2022-11-11T00:20:57;11.20;99.90
16801;DHT22;8518;53.236;10.384;2022-11-11T00:23:41;11.20;99.90
16801;DHT22;8518;53.236;10.384;2022-11-11T00:26:26;11.20;99.90
16801;DHT22;8518;53.236;10.384;2022-11-11T00:28:52;11.20;99.90
16801;DHT22;8518;53.236;10.384;2022-11-11T00:31:18;11.20;99.90
16801;DHT22;8518;53.236;10.384;2022-11-11T00:33:43;11.30;99.90
16801;DHT22;8518;53.236;10.384;2022-11-11T00:36:09;11.30;99.90
16801;DHT22;8518;53.236;10.384;2022-11-11T00:38:35;11.30;99.90
16801;DHT22;8518;53.236;10.384;2022-11-11T00:41:20;11.30;99.90
16801;DHT22;8518;53.236;10.384;2022-11-11T00:43:46;11.30;99.90
16801;DHT22;8518;53.236;10.384;2022-11-11T00:46:13;11.30;99.90
16801;DHT22;8518;53.236;10.384;2022-11-11T00:48:58;11.30;99.90
16801;DHT22;8518;53.236;10.384;2022-11-11T00:51:42;11.30;99.90
16801;DHT22;8518;53.236;10.384;2022-11-11T00:54:09;11.30;99.90
16801;DHT22;8518;53.236;10.384;2022-11-11T00:56:35;11.30;99.90
16801;DHT22;8518;53.236;10.384;2022-11-11T00:59:05;11.30;99.90
16801;DHT22;8518;53.236;10.384;2022-11-11T01:01:35;11.30;99.90
16801;DHT22;8518;53.236;10.384;2022-11-11T01:04:01;11.30;99.90
16801;DHT22;8518;53.236;10.384;2022-11-11T01:06:27;11.30;99.90
16801;DHT22;8518;53.236;10.384;2022-11-11T01:08:53;11.30;99.90
16801;DHT22;8518;53.236;10.384;2022-11-11T01:11:20;11.30;99.90
16801;DHT22;8518;53.236;10.384;2022-11-11T01:13:46;11.40;99.90
16801;DHT22;8518;53.236;10.384;2022-11-11T01:16:24;11.30;99.90
16801;DHT22;8518;53.236;10.384;2022-11-11T01:18:51;11.30;99.90
16801;DHT22;8518;53.236;10.384;2022-11-11T01:21:26;11.30;99.90
16801;DHT22;8518;53.236;10.384;2022-11-11T01:23:52;11.30;99.90
16801;DHT22;8518;53.236;10.384;2022-11-11T01:26:26;11.30;99.90
16801;DHT22;8518;53.236;10.384;2022-11-11T01:28:53;11.30;99.90
16801;DHT22;8518;53.236;10.384;2022-11-11T01:31:21;11.30;99.90
16801;DHT22;8518;53.236;10.384;2022-11-11T01:33:47;11.30;99.90
16801;DHT22;8518;53.236;10.384;2022-11-11T01:36:16;11.30;99.90
16801;DHT22;8518;53.236;10.384;2022-11-11T01:38:42;11.30;99.90
16801;DHT22;8518;53.236;10.384;2022-11-11T01:41:12;11.30;99.90
16801;DHT22;8518;53.236;10.384;2022-11-11T01:43:57;11.20;99.90
16801;DHT22;8518;53.236;10.384;2022-11-11T01:52:35;11.20;99.90
16801;DHT22;8518;53.236;10.384;2022-11-11T01:55:29;11.20;99.90
16801;DHT22;8518;53.236;10.384;2022-11-11T01:57:56;11.20;99.90
16801;DHT22;8518;53.236;10.384;2022-11-11T02:00:24;11.20;99.90
16801;DHT22;8518;53.236;10.384;2022-11-11T02:03:04;11.10;99.90
16801;DHT22;8518;53.236;10.384;2022-11-11T02:05:31;11.10;99.90
16801;DHT22;8518;53.236;10.384;2022-11-11T02:08:13;11.10;99.90
16801;DHT22;8518;53.236;10.384;2022-11-11T02:10:43;11.10;99.90
16801;DHT22;8518;53.236;10.384;2022-11-11T02:13:14;11.00;99.90
16801;DHT22;8518;53.236;10.384;2022-11-11T02:15:59;10.90;99.90
16801;DHT22;8518;53.236;10.384;2022-11-11T02:18:26;10.90;99.90
16801;DHT22;8518;53.236;10.384;2022-11-11T02:20:52;10.90;99.90
16801;DHT22;8518;53.236;10.384;2022-11-11T02:23:25;10.90;99.90
16801;DHT22;8518;53.236;10.384;2022-11-11T02:25:53;10.90;99.90
16801;DHT22;8518;53.236;10.384;2022-11-11T02:28:22;10.80;99.90
16801;DHT22;8518;53.236;10.384;2022-11-11T02:30:49;10.70;99.90
16801;DHT22;8518;53.236;10.384;2022-11-11T02:33:14;10.70;99.90
16801;DHT22;8518;53.236;10.384;2022-11-11T02:35:44;10.70;99.90
16801;DHT22;8518;53.236;10.384;2022-11-11T02:38:11;10.70;99.90
16801;DHT22;8518;53.236;10.384;2022-11-11T02:40:43;10.70;99.90
16801;DHT22;8518;53.236;10.384;2022-11-11T02:43:30;10.60;99.90
16801;DHT22;8518;53.236;10.384;2022-11-11T02:45:56;10.60;99.90
16801;DHT22;8518;53.236;10.384;2022-11-11T02:48:22;10.50;99.90
16801;DHT22;8518;53.236;10.384;2022-11-11T02:50:48;10.40;99.90
16801;DHT22;8518;53.236;10.384;2022-11-11T02:53:14;10.30;99.90
16801;DHT22;8518;53.236;10.384;2022-11-11T02:55:40;10.20;99.90
16801;DHT22;8518;53.236;10.384;2022-11-11T02:58:05;10.20;99.90
16801;DHT22;8518;53.236;10.384;2022-11-11T03:00:31;10.10;99.90
16801;DHT22;8518;53.236;10.384;2022-11-11T03:02:57;10.10;99.90
16801;DHT22;8518;53.236;10.384;2022-11-11T03:05:23;10.10;99.90
16801;DHT22;8518;53.236;10.384;2022-11-11T03:07:49;10.10;99.90
16801;DHT22;8518;53.236;10.384;2022-11-11T03:10:15;10.10;99.90
16801;DHT22;8518;53.236;10.384;2022-11-11T03:12:40;10.10;99.90
16801;DHT22;8518;53.236;10.384;2022-11-11T03:15:07;10.10;99.90
16801;DHT22;8518;53.236;10.384;2022-11-11T03:17:32;10.10;99.90
16801;DHT22;8518;53.236;10.384;2022-11-11T03:20:11;10.10;99.90
16801;DHT22;8518;53.236;10.384;2022-11-11T03:23:15;10.10;99.90
16801;DHT22;8518;53.236;10.384;2022-11-11T03:25:45;10.10;99.90
16801;DHT22;8518;53.236;10.384;2022-11-11T03:28:16;10.10;99.90
16801;DHT22;8518;53.236;10.384;2022-11-11T03:30:46;10.00;99.90
16801;DHT22;8518;53.236;10.384;2022-11-11T03:33:13;10.00;99.90
16801;DHT22;8518;53.236;10.384;2022-11-11T03:35:39;10.00;99.90
16801;DHT22;8518;53.236;10.384;2022-11-11T03:38:08;10.00;99.90
16801;DHT22;8518;53.236;10.384;2022-11-11T03:40:44;10.00;99.90
16801;DHT22;8518;53.236;10.384;2022-11-11T03:43:11;10.00;99.90
16801;DHT22;8518;53.236;10.384;2022-11-11T03:45:37;10.10;99.90
16801;DHT22;8518;53.236;10.384;2022-11-11T03:48:03;10.10;99.90
16801;DHT22;8518;53.236;10.384;2022-11-11T03:50:30;10.20;99.90
16801;DHT22;8518;53.236;10.384;2022-11-11T03:52:56;10.20;99.90
16801;DHT22;8518;53.236;10.384;2022-11-11T03:55:21;10.10;99.90
16801;DHT22;8518;53.236;10.384;2022-11-11T03:57:47;10.10;99.90
16801;DHT22;8518;53.236;10.384;2022-11-11T04:00:24;10.20;99.90
16801;DHT22;8518;53.236;10.384;2022-11-11T04:02:50;10.20;99.90
16801;DHT22;8518;53.236;10.384;2022-11-11T04:05:35;10.20;99.90
16801;DHT22;8518;53.236;10.384;2022-11-11T04:08:21;10.20;99.90
16801;DHT22;8518;53.236;10.384;2022-11-11T04:11:11;10.20;99.90
16801;DHT22;8518;53.236;10.384;2022-11-11T04:13:38;10.20;99.90
16801;DHT22;8518;53.236;10.384;2022-11-11T04:16:24;10.20;99.90
16801;DHT22;8518;53.236;10.384;2022-11-11T04:18:49;10.20;99.90
16801;DHT22;8518;53.236;10.384;2022-11-11T04:21:33;10.20;99.90
16801;DHT22;8518;53.236;10.384;2022-11-11T04:24:14;10.20;99.90
16801;DHT22;8518;53.236;10.384;2022-11-11T04:27:00;10.20;99.90
16801;DHT22;8518;53.236;10.384;2022-11-11T04:29:27;10.20;99.90
16801;DHT22;8518;53.236;10.384;2022-11-11T04:31:54;10.20;99.90
16801;DHT22;8518;53.236;10.384;2022-11-11T04:34:38;10.20;99.90
16801;DHT22;8518;53.236;10.384;2022-11-11T04:37:04;10.20;99.90
16801;DHT22;8518;53.236;10.384;2022-11-11T04:39:30;10.20;99.90
16801;DHT22;8518;53.236;10.384;2022-11-11T04:42:14;10.20;99.90
16801;DHT22;8518;53.236;10.384;2022-11-11T04:44:39;10.30;99.90
16801;DHT22;8518;53.236;10.384;2022-11-11T04:47:24;10.20;99.90
16801;DHT22;8518;53.236;10.384;2022-11-11T04:49:49;10.20;99.90
16801;DHT22;8518;53.236;10.384;2022-11-11T04:52:15;10.20;99.90
16801;DHT22;8518;53.236;10.384;2022-11-11T04:54:57;10.20;99.90
16801;DHT22;8518;53.236;10.384;2022-11-11T04:58:01;10.20;99.90
16801;DHT22;8518;53.236;10.384;2022-11-11T05:00:27;10.30;99.90
16801;DHT22;8518;53.236;10.384;2022-11-11T05:02:54;10.20;99.90
16801;DHT22;8518;53.236;10.384;2022-11-11T05:05:38;10.20;99.90
16801;DHT22;8518;53.236;10.384;2022-11-11T05:08:22;10.30;99.90
16801;DHT22;8518;53.236;10.384;2022-11-11T05:11:07;10.30;99.90
16801;DHT22;8518;53.236;10.384;2022-11-11T05:13:32;10.30;99.90
16801;DHT22;8518;53.236;10.384;2022-11-11T05:16:24;10.20;99.90
16801;DHT22;8518;53.236;10.384;2022-11-11T05:19:13;10.20;99.90
16801;DHT22;8518;53.236;10.384;2022-11-11T05:22:08;10.20;99.90
16801;DHT22;8518;53.236;10.384;2022-11-11T05:24:36;10.30;99.90
16801;DHT22;8518;53.236;10.384;2022-11-11T05:27:20;10.30;99.90
16801;DHT22;8518;53.236;10.384;2022-11-11T05:29:46;10.30;99.90
16801;DHT22;8518;53.236;10.384;2022-11-11T05:32:19;10.30;99.90
16801;DHT22;8518;53.236;10.384;2022-11-11T05:34:45;10.30;99.90
16801;DHT22;8518;53.236;10.384;2022-11-11T05:37:12;10.30;99.90
16801;DHT22;8518;53.236;10.384;2022-11-11T05:39:38;10.30;99.90
16801;DHT22;8518;53.236;10.384;2022-11-11T05:42:04;10.30;99.90
16801;DHT22;8518;53.236;10.384;2022-11-11T05:44:29;10.20;99.90
16801;DHT22;8518;53.236;10.384;2022-11-11T05:46:55;10.30;99.90
16801;DHT22;8518;53.236;10.384;2022-11-11T05:49:21;10.20;99.90
16801;DHT22;8518;53.236;10.384;2022-11-11T05:51:47;10.20;99.90
16801;DHT22;8518;53.236;10.384;2022-11-11T05:54:13;10.30;99.90
16801;DHT22;8518;53.236;10.384;2022-11-11T05:56:39;10.30;99.90
16801;DHT22;8518;53.236;10.384;2022-11-11T05:59:06;10.30;99.90
16801;DHT22;8518;53.236;10.384;2022-11-11T06:01:32;10.30;99.90
16801;DHT22;8518;53.236;10.384;2022-11-11T06:03:58;10.30;99.90
16801;DHT22;8518;53.236;10.384;2022-11-11T06:06:24;10.30;99.90
16801;DHT22;8518;53.236;10.384;2022-11-11T06:08:49;10.30;99.90
16801;DHT22;8518;53.236;10.384;2022-11-11T06:11:15;10.20;99.90
16801;DHT22;8518;53.236;10.384;2022-11-11T06:13:41;10.20;99.90
16801;DHT22;8518;53.236;10.384;2022-11-11T06:16:07;10.30;99.90
16801;DHT22;8518;53.236;10.384;2022-11-11T06:18:33;10.20;99.90
16801;DHT22;8518;53.236;10.384;2022-11-11T06:20:59;10.20;99.90
16801;DHT22;8518;53.236;10.384;2022-11-11T06:23:26;10.20;99.90
16801;DHT22;8518;53.236;10.384;2022-11-11T06:25:52;10.10;99.90
16801;DHT22;8518;53.236;10.384;2022-11-11T06:28:37;10.10;99.90
16801;DHT22;8518;53.236;10.384;2022-11-11T06:31:02;10.10;99.90
16801;DHT22;8518;53.236;10.384;2022-11-11T06:33:29;10.20;99.90
16801;DHT22;8518;53.236;10.384;2022-11-11T06:35:55;10.20;99.90
16801;DHT22;8518;53.236;10.384;2022-11-11T06:38:20;10.20;99.90
16801;DHT22;8518;53.236;10.384;2022-11-11T06:40:47;10.10;99.90
16801;DHT22;8518;53.236;10.384;2022-11-11T06:43:12;10.10;99.90
16801;DHT22;8518;53.236;10.384;2022-11-11T06:45:38;10.10;99.90
16801;DHT22;8518;53.236;10.384;2022-11-11T06:48:05;10.20;99.90
16801;DHT22;8518;53.236;10.384;2022-11-11T06:50:34;10.20;99.90
16801;DHT22;8518;53.236;10.384;2022-11-11T06:53:07;10.20;99.90
16801;DHT22;8518;53.236;10.384;2022-11-11T06:55:33;10.20;99.90
16801;DHT22;8518;53.236;10.384;2022-11-11T06:58:06;10.30;99.90
16801;DHT22;8518;53.236;10.384;2022-11-11T07:00:33;10.30;99.90
16801;DHT22;8518;53.236;10.384;2022-11-11T07:03:00;10.30;99.90
16801;DHT22;8518;53.236;10.384;2022-11-11T07:05:26;10.30;99.90
16801;DHT22;8518;53.236;10.384;2022-11-11T07:07:51;10.30;99.90
16801;DHT22;8518;53.236;10.384;2022-11-11T07:10:17;10.40;99.90
16801;DHT22;8518;53.236;10.384;2022-11-11T07:12:43;10.40;99.90
16801;DHT22;8518;53.236;10.384;2022-11-11T07:15:09;10.40;99.90
16801;DHT22;8518;53.236;10.384;2022-11-11T07:17:35;10.40;99.90
16801;DHT22;8518;53.236;10.384;2022-11-11T07:20:02;10.40;99.90
16801;DHT22;8518;53.236;10.384;2022-11-11T07:22:28;10.40;99.90
16801;DHT22;8518;53.236;10.384;2022-11-11T07:24:53;10.40;99.90
16801;DHT22;8518;53.236;10.384;2022-11-11T07:27:19;10.50;99.90
16801;DHT22;8518;53.236;10.384;2022-11-11T07:29:44;10.50;99.90
16801;DHT22;8518;53.236;10.384;2022-11-11T07:32:10;10.50;99.90
16801;DHT22;8518;53.236;10.384;2022-11-11T07:34:36;10.60;99.90
16801;DHT22;8518;53.236;10.384;2022-11-11T07:37:01;10.60;99.90
16801;DHT22;8518;53.236;10.384;2022-11-11T07:39:27;10.60;99.90
16801;DHT22;8518;53.236;10.384;2022-11-11T07:41:52;10.60;99.90
16801;DHT22;8518;53.236;10.384;2022-11-11T07:44:18;10.60;99.90
16801;DHT22;8518;53.236;10.384;2022-11-11T07:46:44;10.50;99.90
16801;DHT22;8518;53.236;10.384;2022-11-11T07:49:09;10.50;99.90
16801;DHT22;8518;53.236;10.384;2022-11-11T07:51:35;10.50;99.90
16801;DHT22;8518;53.236;10.384;2022-11-11T07:54:01;10.50;99.90
16801;DHT22;8518;53.236;10.384;2022-11-11T07:56:26;10.50;99.90
16801;DHT22;8518;53.236;10.384;2022-11-11T07:58:52;10.50;99.90
16801;DHT22;8518;53.236;10.384;2022-11-11T08:01:17;10.50;99.90
16801;DHT22;8518;53.236;10.384;2022-11-11T08:03:43;10.50;99.90
16801;DHT22;8518;53.236;10.384;2022-11-11T08:06:18;10.50;99.90
16801;DHT22;8518;53.236;10.384;2022-11-11T08:08:44;10.60;99.90
16801;DHT22;8518;53.236;10.384;2022-11-11T08:11:11;10.60;99.90
16801;DHT22;8518;53.236;10.384;2022-11-11T08:13:37;10.60;99.90
16801;DHT22;8518;53.236;10.384;2022-11-11T08:16:13;10.60;99.90
16801;DHT22;8518;53.236;10.384;2022-11-11T08:18:39;10.60;99.90
16801;DHT22;8518;53.236;10.384;2022-11-11T08:21:05;10.60;99.90
16801;DHT22;8518;53.236;10.384;2022-11-11T08:23:31;10.60;99.90
16801;DHT22;8518;53.236;10.384;2022-11-11T08:26:02;10.60;99.90
16801;DHT22;8518;53.236;10.384;2022-11-11T08:28:30;10.70;99.90
16801;DHT22;8518;53.236;10.384;2022-11-11T08:30:58;10.70;99.90
16801;DHT22;8518;53.236;10.384;2022-11-11T08:33:24;10.70;99.90
16801;DHT22;8518;53.236;10.384;2022-11-11T08:35:51;10.70;99.90
16801;DHT22;8518;53.236;10.384;2022-11-11T08:38:21;10.70;99.90
16801;DHT22;8518;53.236;10.384;2022-11-11T08:40:48;10.70;99.90
16801;DHT22;8518;53.236;10.384;2022-11-11T08:43:14;10.60;99.90
16801;DHT22;8518;53.236;10.384;2022-11-11T08:45:39;10.60;99.90
16801;DHT22;8518;53.236;10.384;2022-11-11T08:48:06;10.70;99.90
16801;DHT22;8518;53.236;10.384;2022-11-11T08:50:38;10.80;99.90
16801;DHT22;8518;53.236;10.384;2022-11-11T08:53:06;10.90;99.90
16801;DHT22;8518;53.236;10.384;2022-11-11T08:55:33;10.90;99.90
16801;DHT22;8518;53.236;10.384;2022-11-11T08:58:01;11.00;99.90
16801;DHT22;8518;53.236;10.384;2022-11-11T09:00:27;11.00;99.90
16801;DHT22;8518;53.236;10.384;2022-11-11T09:02:53;11.00;99.90
16801;DHT22;8518;53.236;10.384;2022-11-11T09:05:19;11.00;99.90
16801;DHT22;8518;53.236;10.384;2022-11-11T09:07:45;11.00;99.90
16801;DHT22;8518;53.236;10.384;2022-11-11T09:10:11;11.10;99.90
16801;DHT22;8518;53.236;10.384;2022-11-11T09:12:37;11.10;99.90
16801;DHT22;8518;53.236;10.384;2022-11-11T09:15:03;11.10;99.90
16801;DHT22;8518;53.236;10.384;2022-11-11T09:17:30;11.10;99.90
16801;DHT22;8518;53.236;10.384;2022-11-11T09:19:56;11.10;99.90
16801;DHT22;8518;53.236;10.384;2022-11-11T09:22:25;11.10;99.90
16801;DHT22;8518;53.236;10.384;2022-11-11T09:24:51;11.10;99.90
16801;DHT22;8518;53.236;10.384;2022-11-11T09:27:16;11.00;99.90
16801;DHT22;8518;53.236;10.384;2022-11-11T09:29:42;11.00;99.90
16801;DHT22;8518;53.236;10.384;2022-11-11T09:32:08;11.00;99.90
16801;DHT22;8518;53.236;10.384;2022-11-11T09:34:33;10.90;99.90
16801;DHT22;8518;53.236;10.384;2022-11-11T09:36:59;10.90;99.90
16801;DHT22;8518;53.236;10.384;2022-11-11T09:39:25;10.80;99.90
16801;DHT22;8518;53.236;10.384;2022-11-11T09:48:04;10.90;99.90
16801;DHT22;8518;53.236;10.384;2022-11-11T09:50:29;11.00;99.90
16801;DHT22;8518;53.236;10.384;2022-11-11T09:52:57;10.90;99.90
16801;DHT22;8518;53.236;10.384;2022-11-11T09:55:41;11.00;99.90
16801;DHT22;8518;53.236;10.384;2022-11-11T09:58:23;10.90;99.90
16801;DHT22;8518;53.236;10.384;2022-11-11T10:01:05;10.90;99.90
16801;DHT22;8518;53.236;10.384;2022-11-11T10:03:39;10.90;99.90
16801;DHT22;8518;53.236;10.384;2022-11-11T10:06:14;10.90;99.90
16801;DHT22;8518;53.236;10.384;2022-11-11T10:08:47;10.80;99.90
16801;DHT22;8518;53.236;10.384;2022-11-11T10:11:26;10.70;99.90
16801;DHT22;8518;53.236;10.384;2022-11-11T10:13:55;10.70;99.90
16801;DHT22;8518;53.236;10.384;2022-11-11T10:21:58;10.90;99.90
16801;DHT22;8518;53.236;10.384;2022-11-11T10:26:55;10.90;99.90
16801;DHT22;8518;53.236;10.384;2022-11-11T10:29:25;10.90;99.90
16801;DHT22;8518;53.236;10.384;2022-11-11T10:32:02;10.90;99.90
16801;DHT22;8518;53.236;10.384;2022-11-11T10:34:32;11.10;99.90
16801;DHT22;8518;53.236;10.384;2022-11-11T10:37:00;11.40;99.90
16801;DHT22;8518;53.236;10.384;2022-11-11T10:39:53;11.70;99.90
16801;DHT22;8518;53.236;10.384;2022-11-11T10:42:21;12.00;99.90
16801;DHT22;8518;53.236;10.384;2022-11-11T10:44:46;12.10;99.90
16801;DHT22;8518;53.236;10.384;2022-11-11T10:52:55;12.00;99.90
16801;DHT22;8518;53.236;10.384;2022-11-11T10:55:28;12.00;99.90
16801;DHT22;8518;53.236;10.384;2022-11-11T10:58:05;12.00;99.90
16801;DHT22;8518;53.236;10.384;2022-11-11T11:00:32;11.90;99.90
16801;DHT22;8518;53.236;10.384;2022-11-11T11:03:10;11.80;99.90
16801;DHT22;8518;53.236;10.384;2022-11-11T11:08:15;11.80;99.90
16801;DHT22;8518;53.236;10.384;2022-11-11T11:10:55;11.80;99.90
16801;DHT22;8518;53.236;10.384;2022-11-11T11:13:54;11.70;99.90
16801;DHT22;8518;53.236;10.384;2022-11-11T11:16:25;11.80;99.90
16801;DHT22;8518;53.236;10.384;2022-11-11T11:21:50;12.10;99.90
16801;DHT22;8518;53.236;10.384;2022-11-11T11:24:28;12.10;99.90
16801;DHT22;8518;53.236;10.384;2022-11-11T11:27:01;12.20;99.90
16801;DHT22;8518;53.236;10.384;2022-11-11T11:29:42;12.10;99.90
16801;DHT22;8518;53.236;10.384;2022-11-11T11:34:45;12.10;99.90
16801;DHT22;8518;53.236;10.384;2022-11-11T11:37:11;12.10;99.90
16801;DHT22;8518;53.236;10.384;2022-11-11T11:39:39;12.20;99.90
16801;DHT22;8518;53.236;10.384;2022-11-11T11:42:05;12.40;99.90
16801;DHT22;8518;53.236;10.384;2022-11-11T11:44:36;13.50;99.90
16801;DHT22;8518;53.236;10.384;2022-11-11T11:47:39;14.50;99.90
16801;DHT22;8518;53.236;10.384;2022-11-11T12:04:06;19.20;99.90
16801;DHT22;8518;53.236;10.384;2022-11-11T12:06:56;19.20;99.90
16801;DHT22;8518;53.236;10.384;2022-11-11T12:12:39;19.30;99.90
16801;DHT22;8518;53.236;10.384;2022-11-11T12:21:03;19.50;99.90
16801;DHT22;8518;53.236;10.384;2022-11-11T12:26:54;19.80;99.90
16801;DHT22;8518;53.236;10.384;2022-11-11T12:32:03;20.40;99.90
16801;DHT22;8518;53.236;10.384;2022-11-11T12:34:43;20.90;99.90
16801;DHT22;8518;53.236;10.384;2022-11-11T12:46:00;22.50;99.90
16801;DHT22;8518;53.236;10.384;2022-11-11T12:56:54;23.00;99.90
16801;DHT22;8518;53.236;10.384;2022-11-11T13:02:25;22.50;99.90
16801;DHT22;8518;53.236;10.384;2022-11-11T13:11:05;19.70;99.90
16801;DHT22;8518;53.236;10.384;2022-11-11T13:16:43;21.50;99.90
16801;DHT22;8518;53.236;10.384;2022-11-11T13:22:02;20.90;99.90
16801;DHT22;8518;53.236;10.384;2022-11-11T13:24:31;20.70;99.90
16801;DHT22;8518;53.236;10.384;2022-11-11T13:27:11;21.20;99.90
16801;DHT22;8518;53.236;10.384;2022-11-11T13:32:15;22.00;99.90
16801;DHT22;8518;53.236;10.384;2022-11-11T13:34:43;22.50;99.90
16801;DHT22;8518;53.236;10.384;2022-11-11T13:37:24;23.00;99.90
16801;DHT22;8518;53.236;10.384;2022-11-11T13:39:58;22.80;99.90
16801;DHT22;8518;53.236;10.384;2022-11-11T15:03:11;18.10;99.90
16801;DHT22;8518;53.236;10.384;2022-11-11T15:30:10;14.80;99.90
16801;DHT22;8518;53.236;10.384;2022-11-11T15:35:41;13.90;99.90
16801;DHT22;8518;53.236;10.384;2022-11-11T15:38:12;13.70;99.90
16801;DHT22;8518;53.236;10.384;2022-11-11T15:40:52;13.60;99.90
16801;DHT22;8518;53.236;10.384;2022-11-11T15:43:21;13.40;99.90
16801;DHT22;8518;53.236;10.384;2022-11-11T15:45:56;13.20;99.90
16801;DHT22;8518;53.236;10.384;2022-11-11T15:48:49;13.10;99.90
16801;DHT22;8518;53.236;10.384;2022-11-11T15:51:30;12.90;99.90
16801;DHT22;8518;53.236;10.384;2022-11-11T15:54:16;12.80;99.90
16801;DHT22;8518;53.236;10.384;2022-11-11T15:56:43;12.70;99.90
16801;DHT22;8518;53.236;10.384;2022-11-11T15:59:29;12.70;99.90
16801;DHT22;8518;53.236;10.384;2022-11-11T16:01:57;12.60;99.90
16801;DHT22;8518;53.236;10.384;2022-11-11T16:04:23;12.50;99.90
16801;DHT22;8518;53.236;10.384;2022-11-11T16:06:50;12.40;99.90
16801;DHT22;8518;53.236;10.384;2022-11-11T16:09:23;12.30;99.90
16801;DHT22;8518;53.236;10.384;2022-11-11T16:11:51;12.20;99.90
16801;DHT22;8518;53.236;10.384;2022-11-11T16:16:56;12.10;99.90
16801;DHT22;8518;53.236;10.384;2022-11-11T16:19:39;12.00;99.90
16801;DHT22;8518;53.236;10.384;2022-11-11T16:22:13;11.90;99.90
16801;DHT22;8518;53.236;10.384;2022-11-11T16:24:41;11.80;99.90
16801;DHT22;8518;53.236;10.384;2022-11-11T16:27:14;11.70;99.90
16801;DHT22;8518;53.236;10.384;2022-11-11T16:29:41;11.70;99.90
16801;DHT22;8518;53.236;10.384;2022-11-11T16:32:30;11.60;99.90
16801;DHT22;8518;53.236;10.384;2022-11-11T16:34:57;11.60;99.90
16801;DHT22;8518;53.236;10.384;2022-11-11T16:37:22;11.50;99.90
16801;DHT22;8518;53.236;10.384;2022-11-11T16:39:48;11.40;99.90
16801;DHT22;8518;53.236;10.384;2022-11-11T16:42:20;11.30;99.90
16801;DHT22;8518;53.236;10.384;2022-11-11T16:52:53;11.10;99.90
16801;DHT22;8518;53.236;10.384;2022-11-11T16:58:12;11.00;99.90
16801;DHT22;8518;53.236;10.384;2022-11-11T17:00:40;10.90;99.90
16801;DHT22;8518;53.236;10.384;2022-11-11T17:05:54;10.80;99.90
16801;DHT22;8518;53.236;10.384;2022-11-11T17:11:03;10.80;99.90
16801;DHT22;8518;53.236;10.384;2022-11-11T17:13:29;10.80;99.90
16801;DHT22;8518;53.236;10.384;2022-11-11T17:15:56;10.80;99.90
16801;DHT22;8518;53.236;10.384;2022-11-11T17:18:24;10.70;99.90
16801;DHT22;8518;53.236;10.384;2022-11-11T17:20:50;10.70;99.90
16801;DHT22;8518;53.236;10.384;2022-11-11T17:23:16;10.70;99.90
16801;DHT22;8518;53.236;10.384;2022-11-11T17:25:43;10.70;99.90
16801;DHT22;8518;53.236;10.384;2022-11-11T17:28:08;10.60;99.90
16801;DHT22;8518;53.236;10.384;2022-11-11T17:30:35;10.60;99.90
16801;DHT22;8518;53.236;10.384;2022-11-11T17:33:01;10.60;99.90
16801;DHT22;8518;53.236;10.384;2022-11-11T17:35:26;10.50;99.90
16801;DHT22;8518;53.236;10.384;2022-11-11T17:37:52;10.50;99.90
16801;DHT22;8518;53.236;10.384;2022-11-11T17:40:17;10.40;99.90
16801;DHT22;8518;53.236;10.384;2022-11-11T17:42:43;10.50;99.90
16801;DHT22;8518;53.236;10.384;2022-11-11T17:45:09;10.40;99.90
16801;DHT22;8518;53.236;10.384;2022-11-11T18:03:22;10.30;99.90
16801;DHT22;8518;53.236;10.384;2022-11-11T18:05:52;10.40;99.90
16801;DHT22;8518;53.236;10.384;2022-11-11T18:08:18;10.40;99.90
16801;DHT22;8518;53.236;10.384;2022-11-11T18:10:44;10.40;99.90
16801;DHT22;8518;53.236;10.384;2022-11-11T18:13:09;10.30;99.90
16801;DHT22;8518;53.236;10.384;2022-11-11T18:15:35;10.30;99.90
16801;DHT22;8518;53.236;10.384;2022-11-11T18:18:01;10.30;99.90
16801;DHT22;8518;53.236;10.384;2022-11-11T18:20:26;10.20;99.90
16801;DHT22;8518;53.236;10.384;2022-11-11T18:22:55;10.20;99.90
16801;DHT22;8518;53.236;10.384;2022-11-11T18:25:23;10.10;99.90
16801;DHT22;8518;53.236;10.384;2022-11-11T18:27:52;10.00;99.90
16801;DHT22;8518;53.236;10.384;2022-11-11T18:30:18;10.00;99.90
16801;DHT22;8518;53.236;10.384;2022-11-11T18:32:44;9.90;99.90
16801;DHT22;8518;53.236;10.384;2022-11-11T18:35:11;9.80;99.90
16801;DHT22;8518;53.236;10.384;2022-11-11T18:37:37;9.80;99.90
16801;DHT22;8518;53.236;10.384;2022-11-11T18:40:04;9.70;99.90
16801;DHT22;8518;53.236;10.384;2022-11-11T18:42:30;9.60;99.90
16801;DHT22;8518;53.236;10.384;2022-11-11T18:44:55;9.60;99.90
16801;DHT22;8518;53.236;10.384;2022-11-11T18:47:21;9.50;99.90
16801;DHT22;8518;53.236;10.384;2022-11-11T18:49:47;9.50;99.90
16801;DHT22;8518;53.236;10.384;2022-11-11T18:52:12;9.50;99.90
16801;DHT22;8518;53.236;10.384;2022-11-11T18:54:38;9.50;99.90
16801;DHT22;8518;53.236;10.384;2022-11-11T18:57:03;9.50;99.90
16801;DHT22;8518;53.236;10.384;2022-11-11T18:59:29;9.40;99.90
16801;DHT22;8518;53.236;10.384;2022-11-11T19:01:55;9.40;99.90
16801;DHT22;8518;53.236;10.384;2022-11-11T19:04:20;9.30;99.90
16801;DHT22;8518;53.236;10.384;2022-11-11T19:06:46;9.30;99.90
16801;DHT22;8518;53.236;10.384;2022-11-11T19:09:12;9.20;99.90
16801;DHT22;8518;53.236;10.384;2022-11-11T19:11:43;9.20;99.90
16801;DHT22;8518;53.236;10.384;2022-11-11T19:14:09;9.10;99.90
16801;DHT22;8518;53.236;10.384;2022-11-11T19:16:36;9.10;99.90
16801;DHT22;8518;53.236;10.384;2022-11-11T19:19:03;9.10;99.90
16801;DHT22;8518;53.236;10.384;2022-11-11T19:21:31;9.00;99.90
16801;DHT22;8518;53.236;10.384;2022-11-11T19:23:57;9.00;99.90
16801;DHT22;8518;53.236;10.384;2022-11-11T19:26:24;8.90;99.90
16801;DHT22;8518;53.236;10.384;2022-11-11T19:28:51;8.80;99.90
16801;DHT22;8518;53.236;10.384;2022-11-11T19:31:25;8.90;99.90
16801;DHT22;8518;53.236;10.384;2022-11-11T19:33:52;8.80;99.90
16801;DHT22;8518;53.236;10.384;2022-11-11T19:36:20;8.80;99.90
16801;DHT22;8518;53.236;10.384;2022-11-11T19:38:48;8.70;99.90
16801;DHT22;8518;53.236;10.384;2022-11-11T19:41:16;8.70;99.90
16801;DHT22;8518;53.236;10.384;2022-11-11T19:43:42;8.70;99.90
16801;DHT22;8518;53.236;10.384;2022-11-11T19:46:11;8.70;99.90
16801;DHT22;8518;53.236;10.384;2022-11-11T19:48:37;8.70;99.90
16801;DHT22;8518;53.236;10.384;2022-11-11T19:51:09;8.70;99.90
16801;DHT22;8518;53.236;10.384;2022-11-11T19:53:34;8.70;99.90